sensor_id;sensor_type;location;lat;lon;timestamp;temperature;humidity
31809;DHT22;18379;48.208;-1.518;2022-07-23T00:04:58;17.30;99.90
31809;DHT22;18379;48.208;-1.518;2022-07-23T00:09:58;17.30;99.90
31809;DHT22;18379;48.208;-1.518;2022-07-23T00:14:59;17.30;99.90
31809;DHT22;18379;48.208;-1.518;2022-07-23T00:20:00;17.30;99.90
31809;DHT22;18379;48.208;-1.518;2022-07-23T00:25:01;17.20;99.90
31809;DHT22;18379;48.208;-1.518;2022-07-23T00:30:02;17.20;99.90
31809;DHT22;18379;48.208;-1.518;2022-07-23T00:35:03;16.90;99.90
31809;DHT22;18379;48.208;-1.518;2022-07-23T00:40:05;16.90;99.90
31809;DHT22;18379;48.208;-1.518;2022-07-23T00:45:06;16.80;99.90
31809;DHT22;18379;48.208;-1.518;2022-07-23T00:50:08;16.80;99.90
31809;DHT22;18379;48.208;-1.518;2022-07-23T00:55:10;16.80;99.90
31809;DHT22;18379;48.208;-1.518;2022-07-23T01:00:13;16.60;99.90
31809;DHT22;18379;48.208;-1.518;2022-07-23T01:05:15;16.60;99.90
31809;DHT22;18379;48.208;-1.518;2022-07-23T01:10:16;16.60;99.90
31809;DHT22;18379;48.208;-1.518;2022-07-23T01:15:37;16.70;99.90
31809;DHT22;18379;48.208;-1.518;2022-07-23T01:20:38;16.80;99.90
31809;DHT22;18379;48.208;-1.518;2022-07-23T01:25:53;16.80;99.90
31809;DHT22;18379;48.208;-1.518;2022-07-23T01:30:54;16.80;99.90
31809;DHT22;18379;48.208;-1.518;2022-07-23T01:35:55;16.70;99.90
31809;DHT22;18379;48.208;-1.518;2022-07-23T01:40:56;16.50;99.90
31809;DHT22;18379;48.208;-1.518;2022-07-23T01:45:56;16.40;99.90
31809;DHT22;18379;48.208;-1.518;2022-07-23T01:50:57;16.50;99.90
31809;DHT22;18379;48.208;-1.518;2022-07-23T01:55:59;16.50;99.90
31809;DHT22;18379;48.208;-1.518;2022-07-23T02:01:00;16.40;99.90
31809;DHT22;18379;48.208;-1.518;2022-07-23T02:06:00;16.50;99.90
31809;DHT22;18379;48.208;-1.518;2022-07-23T02:11:01;16.50;99.90
31809;DHT22;18379;48.208;-1.518;2022-07-23T02:16:02;16.50;99.90
31809;DHT22;18379;48.208;-1.518;2022-07-23T02:21:03;16.40;99.90
31809;DHT22;18379;48.208;-1.518;2022-07-23T02:26:04;16.40;99.90
31809;DHT22;18379;48.208;-1.518;2022-07-23T02:31:05;16.30;99.90
31809;DHT22;18379;48.208;-1.518;2022-07-23T02:36:07;16.30;99.90
31809;DHT22;18379;48.208;-1.518;2022-07-23T02:41:08;16.20;99.90
31809;DHT22;18379;48.208;-1.518;2022-07-23T02:46:08;16.20;99.90
31809;DHT22;18379;48.208;-1.518;2022-07-23T02:51:09;16.20;99.90
31809;DHT22;18379;48.208;-1.518;2022-07-23T02:56:10;16.10;99.90
31809;DHT22;18379;48.208;-1.518;2022-07-23T03:01:11;16.20;99.90
31809;DHT22;18379;48.208;-1.518;2022-07-23T03:06:12;16.30;99.90
31809;DHT22;18379;48.208;-1.518;2022-07-23T03:11:12;16.20;99.90
31809;DHT22;18379;48.208;-1.518;2022-07-23T03:16:13;16.20;99.90
31809;DHT22;18379;48.208;-1.518;2022-07-23T03:21:14;16.20;99.90
31809;DHT22;18379;48.208;-1.518;2022-07-23T03:26:15;16.10;99.90
31809;DHT22;18379;48.208;-1.518;2022-07-23T03:31:16;16.20;99.90
31809;DHT22;18379;48.208;-1.518;2022-07-23T03:36:17;16.10;99.90
31809;DHT22;18379;48.208;-1.518;2022-07-23T03:41:19;16.10;99.90
31809;DHT22;18379;48.208;-1.518;2022-07-23T03:46:20;16.10;99.90
31809;DHT22;18379;48.208;-1.518;2022-07-23T03:51:20;16.20;99.90
31809;DHT22;18379;48.208;-1.518;2022-07-23T03:56:21;16.30;99.90
31809;DHT22;18379;48.208;-1.518;2022-07-23T04:01:22;16.30;99.90
31809;DHT22;18379;48.208;-1.518;2022-07-23T04:06:23;16.40;99.90
31809;DHT22;18379;48.208;-1.518;2022-07-23T04:11:24;16.40;99.90
31809;DHT22;18379;48.208;-1.518;2022-07-23T04:16:25;16.30;99.90
31809;DHT22;18379;48.208;-1.518;2022-07-23T04:21:25;16.20;99.90
31809;DHT22;18379;48.208;-1.518;2022-07-23T04:26:26;16.10;99.90
31809;DHT22;18379;48.208;-1.518;2022-07-23T04:31:27;16.00;99.90
31809;DHT22;18379;48.208;-1.518;2022-07-23T04:36:28;15.90;99.90
31809;DHT22;18379;48.208;-1.518;2022-07-23T04:41:29;15.90;99.90
31809;DHT22;18379;48.208;-1.518;2022-07-23T04:46:30;15.90;99.90
31809;DHT22;18379;48.208;-1.518;2022-07-23T04:51:30;15.90;99.90
31809;DHT22;18379;48.208;-1.518;2022-07-23T04:56:32;15.80;99.90
31809;DHT22;18379;48.208;-1.518;2022-07-23T05:01:32;15.80;99.90
31809;DHT22;18379;48.208;-1.518;2022-07-23T05:06:33;15.60;99.90
31809;DHT22;18379;48.208;-1.518;2022-07-23T05:11:34;15.60;99.90
31809;DHT22;18379;48.208;-1.518;2022-07-23T05:16:35;15.70;99.90
31809;DHT22;18379;48.208;-1.518;2022-07-23T05:21:35;15.60;99.90
31809;DHT22;18379;48.208;-1.518;2022-07-23T05:26:36;15.70;99.90
31809;DHT22;18379;48.208;-1.518;2022-07-23T05:31:37;15.80;99.90
31809;DHT22;18379;48.208;-1.518;2022-07-23T05:36:38;15.80;99.90
31809;DHT22;18379;48.208;-1.518;2022-07-23T05:41:39;15.90;99.90
31809;DHT22;18379;48.208;-1.518;2022-07-23T05:46:39;16.00;99.90
31809;DHT22;18379;48.208;-1.518;2022-07-23T05:51:40;15.90;99.90
31809;DHT22;18379;48.208;-1.518;2022-07-23T05:56:41;15.80;99.90
31809;DHT22;18379;48.208;-1.518;2022-07-23T06:01:42;15.80;99.90
31809;DHT22;18379;48.208;-1.518;2022-07-23T06:06:43;15.90;99.90
31809;DHT22;18379;48.208;-1.518;2022-07-23T06:11:44;16.00;99.90
31809;DHT22;18379;48.208;-1.518;2022-07-23T06:16:44;16.10;99.90
31809;DHT22;18379;48.208;-1.518;2022-07-23T06:21:45;15.90;99.90
31809;DHT22;18379;48.208;-1.518;2022-07-23T06:26:46;16.00;99.90
31809;DHT22;18379;48.208;-1.518;2022-07-23T06:31:47;16.00;99.90
31809;DHT22;18379;48.208;-1.518;2022-07-23T06:36:47;16.10;99.90
31809;DHT22;18379;48.208;-1.518;2022-07-23T06:41:48;16.20;99.90
31809;DHT22;18379;48.208;-1.518;2022-07-23T06:46:49;16.30;99.90
31809;DHT22;18379;48.208;-1.518;2022-07-23T06:51:50;16.50;99.90
31809;DHT22;18379;48.208;-1.518;2022-07-23T06:56:51;16.70;99.90
31809;DHT22;18379;48.208;-1.518;2022-07-23T07:01:51;16.80;99.90
31809;DHT22;18379;48.208;-1.518;2022-07-23T07:06:52;17.00;99.90
31809;DHT22;18379;48.208;-1.518;2022-07-23T07:11:53;17.10;99.90
31809;DHT22;18379;48.208;-1.518;2022-07-23T07:16:54;17.20;99.90
31809;DHT22;18379;48.208;-1.518;2022-07-23T07:21:55;17.20;99.90
31809;DHT22;18379;48.208;-1.518;2022-07-23T07:26:55;17.30;99.90
31809;DHT22;18379;48.208;-1.518;2022-07-23T07:31:56;17.50;99.90
31809;DHT22;18379;48.208;-1.518;2022-07-23T07:36:57;17.80;99.90
31809;DHT22;18379;48.208;-1.518;2022-07-23T07:41:57;17.90;99.90
31809;DHT22;18379;48.208;-1.518;2022-07-23T07:46:58;18.00;99.90
31809;DHT22;18379;48.208;-1.518;2022-07-23T07:51:59;18.10;99.90
31809;DHT22;18379;48.208;-1.518;2022-07-23T07:57:00;18.20;99.90
31809;DHT22;18379;48.208;-1.518;2022-07-23T08:02:01;18.50;99.90
31809;DHT22;18379;48.208;-1.518;2022-07-23T08:07:03;18.60;99.90
31809;DHT22;18379;48.208;-1.518;2022-07-23T08:12:04;18.70;99.90
31809;DHT22;18379;48.208;-1.518;2022-07-23T08:17:05;18.80;99.90
31809;DHT22;18379;48.208;-1.518;2022-07-23T08:22:05;18.80;99.90
31809;DHT22;18379;48.208;-1.518;2022-07-23T08:27:06;18.80;99.90
31809;DHT22;18379;48.208;-1.518;2022-07-23T08:32:07;18.90;99.90
31809;DHT22;18379;48.208;-1.518;2022-07-23T08:37:08;19.40;99.90
31809;DHT22;18379;48.208;-1.518;2022-07-23T08:42:08;19.60;99.90
31809;DHT22;18379;48.208;-1.518;2022-07-23T08:47:09;19.80;99.90
31809;DHT22;18379;48.208;-1.518;2022-07-23T08:52:10;19.70;99.90
31809;DHT22;18379;48.208;-1.518;2022-07-23T08:57:11;19.80;99.90
31809;DHT22;18379;48.208;-1.518;2022-07-23T09:02:12;19.90;99.90
31809;DHT22;18379;48.208;-1.518;2022-07-23T09:07:13;20.20;99.90
31809;DHT22;18379;48.208;-1.518;2022-07-23T09:12:14;20.20;99.90
31809;DHT22;18379;48.208;-1.518;2022-07-23T09:17:17;20.30;99.90
31809;DHT22;18379;48.208;-1.518;2022-07-23T09:22:21;20.30;99.90
31809;DHT22;18379;48.208;-1.518;2022-07-23T09:27:23;20.20;99.90
31809;DHT22;18379;48.208;-1.518;2022-07-23T09:32:44;20.50;99.90
31809;DHT22;18379;48.208;-1.518;2022-07-23T09:38:01;21.20;99.90
31809;DHT22;18379;48.208;-1.518;2022-07-23T09:43:02;22.10;99.90
31809;DHT22;18379;48.208;-1.518;2022-07-23T09:48:14;22.60;99.90
31809;DHT22;18379;48.208;-1.518;2022-07-23T09:53:25;22.60;99.90
31809;DHT22;18379;48.208;-1.518;2022-07-23T09:58:28;22.60;99.90
31809;DHT22;18379;48.208;-1.518;2022-07-23T10:03:30;22.40;97.80
31809;DHT22;18379;48.208;-1.518;2022-07-23T10:08:32;22.70;99.90
31809;DHT22;18379;48.208;-1.518;2022-07-23T10:13:34;23.70;99.90
31809;DHT22;18379;48.208;-1.518;2022-07-23T10:18:54;24.40;99.00
31809;DHT22;18379;48.208;-1.518;2022-07-23T10:24:05;25.10;93.00
31809;DHT22;18379;48.208;-1.518;2022-07-23T10:30:09;25.20;95.30
31809;DHT22;18379;48.208;-1.518;2022-07-23T10:34:44;24.70;92.40
31809;DHT22;18379;48.208;-1.518;2022-07-23T10:39:45;24.60;92.80
31809;DHT22;18379;48.208;-1.518;2022-07-23T10:44:47;25.20;92.40
31809;DHT22;18379;48.208;-1.518;2022-07-23T10:49:48;25.30;91.20
31809;DHT22;18379;48.208;-1.518;2022-07-23T10:54:50;25.60;89.40
31809;DHT22;18379;48.208;-1.518;2022-07-23T11:05:07;25.40;86.00
31809;DHT22;18379;48.208;-1.518;2022-07-23T11:10:32;25.80;86.50
31809;DHT22;18379;48.208;-1.518;2022-07-23T11:26:50;26.00;85.90
31809;DHT22;18379;48.208;-1.518;2022-07-23T11:31:59;26.20;85.30
31809;DHT22;18379;48.208;-1.518;2022-07-23T11:37:02;26.20;83.30
31809;DHT22;18379;48.208;-1.518;2022-07-23T11:42:05;26.50;81.50
31809;DHT22;18379;48.208;-1.518;2022-07-23T11:47:09;27.00;80.60
31809;DHT22;18379;48.208;-1.518;2022-07-23T11:52:12;27.40;78.50
31809;DHT22;18379;48.208;-1.518;2022-07-23T11:57:13;27.70;76.80
31809;DHT22;18379;48.208;-1.518;2022-07-23T12:02:14;27.50;72.50
31809;DHT22;18379;48.208;-1.518;2022-07-23T12:12:41;27.10;71.10
31809;DHT22;18379;48.208;-1.518;2022-07-23T12:17:44;27.20;70.00
31809;DHT22;18379;48.208;-1.518;2022-07-23T12:22:48;27.40;71.80
31809;DHT22;18379;48.208;-1.518;2022-07-23T12:28:22;27.60;69.40
31809;DHT22;18379;48.208;-1.518;2022-07-23T12:33:35;28.10;67.80
31809;DHT22;18379;48.208;-1.518;2022-07-23T12:38:50;28.30;68.50
31809;DHT22;18379;48.208;-1.518;2022-07-23T12:43:51;28.60;66.30
31809;DHT22;18379;48.208;-1.518;2022-07-23T12:48:53;28.50;64.30
31809;DHT22;18379;48.208;-1.518;2022-07-23T12:59:08;28.10;61.00
31809;DHT22;18379;48.208;-1.518;2022-07-23T13:04:15;28.00;62.30
31809;DHT22;18379;48.208;-1.518;2022-07-23T13:09:21;28.40;62.00
31809;DHT22;18379;48.208;-1.518;2022-07-23T13:14:22;28.80;60.10
31809;DHT22;18379;48.208;-1.518;2022-07-23T13:19:24;28.90;59.10
31809;DHT22;18379;48.208;-1.518;2022-07-23T13:24:25;28.70;59.60
31809;DHT22;18379;48.208;-1.518;2022-07-23T13:29:26;28.90;61.30
31809;DHT22;18379;48.208;-1.518;2022-07-23T13:34:27;28.70;56.50
31809;DHT22;18379;48.208;-1.518;2022-07-23T13:39:27;28.20;58.60
31809;DHT22;18379;48.208;-1.518;2022-07-23T13:44:28;28.20;57.60
31809;DHT22;18379;48.208;-1.518;2022-07-23T13:49:31;28.60;58.80
31809;DHT22;18379;48.208;-1.518;2022-07-23T13:54:33;28.90;57.60
31809;DHT22;18379;48.208;-1.518;2022-07-23T13:59:34;28.50;57.70
31809;DHT22;18379;48.208;-1.518;2022-07-23T14:04:35;28.20;58.40
31809;DHT22;18379;48.208;-1.518;2022-07-23T14:09:36;28.60;60.00
31809;DHT22;18379;48.208;-1.518;2022-07-23T14:14:37;29.10;58.30
31809;DHT22;18379;48.208;-1.518;2022-07-23T14:19:38;29.00;55.30
31809;DHT22;18379;48.208;-1.518;2022-07-23T14:24:39;28.80;56.60
31809;DHT22;18379;48.208;-1.518;2022-07-23T14:29:40;29.00;56.60
31809;DHT22;18379;48.208;-1.518;2022-07-23T14:34:41;28.70;54.20
31809;DHT22;18379;48.208;-1.518;2022-07-23T14:39:43;28.40;55.50
31809;DHT22;18379;48.208;-1.518;2022-07-23T14:44:44;28.40;56.30
31809;DHT22;18379;48.208;-1.518;2022-07-23T14:49:45;28.40;56.10
31809;DHT22;18379;48.208;-1.518;2022-07-23T14:54:46;28.60;56.40
31809;DHT22;18379;48.208;-1.518;2022-07-23T14:59:48;28.80;56.30
31809;DHT22;18379;48.208;-1.518;2022-07-23T15:04:48;28.80;55.00
31809;DHT22;18379;48.208;-1.518;2022-07-23T15:09:49;28.60;54.60
31809;DHT22;18379;48.208;-1.518;2022-07-23T15:14:50;27.90;53.70
31809;DHT22;18379;48.208;-1.518;2022-07-23T15:19:51;27.70;54.60
31809;DHT22;18379;48.208;-1.518;2022-07-23T15:24:52;28.00;55.40
31809;DHT22;18379;48.208;-1.518;2022-07-23T15:29:53;28.20;54.90
31809;DHT22;18379;48.208;-1.518;2022-07-23T15:34:54;28.10;54.80
31809;DHT22;18379;48.208;-1.518;2022-07-23T15:39:55;28.10;55.30
31809;DHT22;18379;48.208;-1.518;2022-07-23T15:44:56;28.30;53.40
31809;DHT22;18379;48.208;-1.518;2022-07-23T15:49:56;28.10;53.20
31809;DHT22;18379;48.208;-1.518;2022-07-23T15:54:57;28.10;54.10
31809;DHT22;18379;48.208;-1.518;2022-07-23T15:59:59;28.10;53.40
31809;DHT22;18379;48.208;-1.518;2022-07-23T16:05:01;28.10;53.30
31809;DHT22;18379;48.208;-1.518;2022-07-23T16:10:21;28.20;53.60
31809;DHT22;18379;48.208;-1.518;2022-07-23T16:15:22;28.20;53.90
31809;DHT22;18379;48.208;-1.518;2022-07-23T16:20:23;28.10;53.80
31809;DHT22;18379;48.208;-1.518;2022-07-23T16:25:24;28.10;53.80
31809;DHT22;18379;48.208;-1.518;2022-07-23T16:30:26;28.00;53.20
31809;DHT22;18379;48.208;-1.518;2022-07-23T16:35:27;27.90;53.50
31809;DHT22;18379;48.208;-1.518;2022-07-23T16:40:29;27.80;53.10
31809;DHT22;18379;48.208;-1.518;2022-07-23T16:45:30;27.80;53.90
31809;DHT22;18379;48.208;-1.518;2022-07-23T16:50:31;27.90;54.10
31809;DHT22;18379;48.208;-1.518;2022-07-23T16:55:32;28.00;53.70
31809;DHT22;18379;48.208;-1.518;2022-07-23T17:00:33;27.90;53.80
31809;DHT22;18379;48.208;-1.518;2022-07-23T17:05:34;27.60;54.00
31809;DHT22;18379;48.208;-1.518;2022-07-23T17:10:35;27.50;54.60
31809;DHT22;18379;48.208;-1.518;2022-07-23T17:15:36;27.60;55.00
31809;DHT22;18379;48.208;-1.518;2022-07-23T17:20:36;27.60;55.20
31809;DHT22;18379;48.208;-1.518;2022-07-23T17:25:37;27.60;54.40
31809;DHT22;18379;48.208;-1.518;2022-07-23T17:30:38;27.40;54.70
31809;DHT22;18379;48.208;-1.518;2022-07-23T17:35:39;27.40;55.40
31809;DHT22;18379;48.208;-1.518;2022-07-23T17:40:40;27.40;55.20
31809;DHT22;18379;48.208;-1.518;2022-07-23T17:45:41;27.50;55.30
31809;DHT22;18379;48.208;-1.518;2022-07-23T17:50:42;27.40;55.20
31809;DHT22;18379;48.208;-1.518;2022-07-23T17:55:43;27.50;55.70
31809;DHT22;18379;48.208;-1.518;2022-07-23T18:00:44;27.50;56.00
31809;DHT22;18379;48.208;-1.518;2022-07-23T18:05:45;27.50;55.50
31809;DHT22;18379;48.208;-1.518;2022-07-23T18:10:46;27.40;56.10
31809;DHT22;18379;48.208;-1.518;2022-07-23T18:15:47;27.30;57.00
31809;DHT22;18379;48.208;-1.518;2022-07-23T18:20:49;27.20;57.30
31809;DHT22;18379;48.208;-1.518;2022-07-23T18:25:50;27.30;57.30
31809;DHT22;18379;48.208;-1.518;2022-07-23T18:30:50;27.30;57.00
31809;DHT22;18379;48.208;-1.518;2022-07-23T18:35:52;27.30;56.90
31809;DHT22;18379;48.208;-1.518;2022-07-23T18:40:53;27.20;56.90
31809;DHT22;18379;48.208;-1.518;2022-07-23T18:45:54;27.20;57.20
31809;DHT22;18379;48.208;-1.518;2022-07-23T18:50:57;27.20;57.60
31809;DHT22;18379;48.208;-1.518;2022-07-23T18:55:58;27.30;57.90
31809;DHT22;18379;48.208;-1.518;2022-07-23T19:00:59;27.30;57.90
31809;DHT22;18379;48.208;-1.518;2022-07-23T19:06:00;27.20;57.80
31809;DHT22;18379;48.208;-1.518;2022-07-23T19:11:01;27.10;58.30
31809;DHT22;18379;48.208;-1.518;2022-07-23T19:16:02;27.00;58.10
31809;DHT22;18379;48.208;-1.518;2022-07-23T19:21:05;27.00;58.30
31809;DHT22;18379;48.208;-1.518;2022-07-23T19:26:06;26.90;58.40
31809;DHT22;18379;48.208;-1.518;2022-07-23T19:31:07;26.80;58.30
31809;DHT22;18379;48.208;-1.518;2022-07-23T19:36:08;26.80;58.90
31809;DHT22;18379;48.208;-1.518;2022-07-23T19:41:09;26.70;59.50
31809;DHT22;18379;48.208;-1.518;2022-07-23T19:46:10;26.60;59.10
31809;DHT22;18379;48.208;-1.518;2022-07-23T19:51:11;26.50;59.30
31809;DHT22;18379;48.208;-1.518;2022-07-23T19:56:12;26.40;60.30
31809;DHT22;18379;48.208;-1.518;2022-07-23T20:01:12;26.20;62.10
31809;DHT22;18379;48.208;-1.518;2022-07-23T20:06:13;26.00;63.60
31809;DHT22;18379;48.208;-1.518;2022-07-23T20:11:14;25.70;64.10
31809;DHT22;18379;48.208;-1.518;2022-07-23T20:16:15;25.70;64.20
31809;DHT22;18379;48.208;-1.518;2022-07-23T20:21:16;25.60;65.20
31809;DHT22;18379;48.208;-1.518;2022-07-23T20:26:17;25.30;66.50
31809;DHT22;18379;48.208;-1.518;2022-07-23T20:31:19;25.10;67.70
31809;DHT22;18379;48.208;-1.518;2022-07-23T20:36:20;24.90;68.60
31809;DHT22;18379;48.208;-1.518;2022-07-23T20:41:23;24.70;69.80
31809;DHT22;18379;48.208;-1.518;2022-07-23T20:46:24;24.40;71.00
31809;DHT22;18379;48.208;-1.518;2022-07-23T20:51:25;24.40;70.00
31809;DHT22;18379;48.208;-1.518;2022-07-23T20:56:26;24.40;69.90
31809;DHT22;18379;48.208;-1.518;2022-07-23T21:01:30;24.30;70.50
31809;DHT22;18379;48.208;-1.518;2022-07-23T21:06:34;24.30;70.40
31809;DHT22;18379;48.208;-1.518;2022-07-23T21:11:35;24.20;70.20
31809;DHT22;18379;48.208;-1.518;2022-07-23T21:16:36;24.10;71.40
31809;DHT22;18379;48.208;-1.518;2022-07-23T21:21:37;24.00;71.30
31809;DHT22;18379;48.208;-1.518;2022-07-23T21:26:37;24.00;72.20
31809;DHT22;18379;48.208;-1.518;2022-07-23T21:31:38;23.90;72.40
31809;DHT22;18379;48.208;-1.518;2022-07-23T21:36:39;23.80;72.10
31809;DHT22;18379;48.208;-1.518;2022-07-23T21:41:41;23.80;71.70
31809;DHT22;18379;48.208;-1.518;2022-07-23T21:46:42;23.80;71.60
31809;DHT22;18379;48.208;-1.518;2022-07-23T21:51:43;23.70;72.50
31809;DHT22;18379;48.208;-1.518;2022-07-23T21:56:44;23.60;72.70
31809;DHT22;18379;48.208;-1.518;2022-07-23T22:01:45;23.50;73.50
31809;DHT22;18379;48.208;-1.518;2022-07-23T22:06:46;23.40;73.70
31809;DHT22;18379;48.208;-1.518;2022-07-23T22:11:47;23.20;75.10
31809;DHT22;18379;48.208;-1.518;2022-07-23T22:16:48;23.10;73.60
31809;DHT22;18379;48.208;-1.518;2022-07-23T22:21:48;23.00;74.80
31809;DHT22;18379;48.208;-1.518;2022-07-23T22:26:49;23.00;74.60
31809;DHT22;18379;48.208;-1.518;2022-07-23T22:31:50;23.00;75.90
31809;DHT22;18379;48.208;-1.518;2022-07-23T22:36:51;22.90;75.10
31809;DHT22;18379;48.208;-1.518;2022-07-23T22:41:52;22.80;76.10
31809;DHT22;18379;48.208;-1.518;2022-07-23T22:46:52;22.70;77.60
31809;DHT22;18379;48.208;-1.518;2022-07-23T22:51:53;22.60;77.60
31809;DHT22;18379;48.208;-1.518;2022-07-23T22:56:54;22.40;78.10
31809;DHT22;18379;48.208;-1.518;2022-07-23T23:01:55;22.40;79.40
31809;DHT22;18379;48.208;-1.518;2022-07-23T23:06:56;22.40;78.70
31809;DHT22;18379;48.208;-1.518;2022-07-23T23:11:57;22.30;79.50
31809;DHT22;18379;48.208;-1.518;2022-07-23T23:16:57;22.10;81.30
31809;DHT22;18379;48.208;-1.518;2022-07-23T23:21:58;22.00;81.80
31809;DHT22;18379;48.208;-1.518;2022-07-23T23:26:59;21.90;82.70
31809;DHT22;18379;48.208;-1.518;2022-07-23T23:32:00;21.70;82.30
31809;DHT22;18379;48.208;-1.518;2022-07-23T23:37:01;21.70;81.80
31809;DHT22;18379;48.208;-1.518;2022-07-23T23:42:02;21.80;82.20
31809;DHT22;18379;48.208;-1.518;2022-07-23T23:47:03;21.70;82.50
31809;DHT22;18379;48.208;-1.518;2022-07-23T23:52:05;21.70;83.50
31809;DHT22;18379;48.208;-1.518;2022-07-23T23:57:05;21.60;84.50
